createdAt,value
2018-05-16T00:00:34.842Z,101323.66
2018-05-16T00:03:03.802Z,101329.05
2018-05-16T00:05:33.907Z,101334.89
2018-05-16T00:08:03.221Z,101328.21
2018-05-16T00:10:32.805Z,101320.75
2018-05-16T00:13:01.159Z,101323.66
2018-05-16T00:15:30.773Z,101322.38
2018-05-16T00:18:00.171Z,101324.91
2018-05-16T00:20:29.278Z,101319.39
2018-05-16T00:22:58.434Z,101325.24
2018-05-16T00:25:27.555Z,101318.55
2018-05-16T00:27:56.684Z,101320.75
2018-05-16T00:30:24.979Z,101320.05
2018-05-16T00:32:54.241Z,101322.88
2018-05-16T00:35:23.330Z,101317.02
2018-05-16T00:37:52.807Z,101316.95
2018-05-16T00:40:22.450Z,101315.29
2018-05-16T00:42:50.762Z,101316.97
2018-05-16T00:45:19.106Z,101317.44
2018-05-16T00:47:48.498Z,101311.84
2018-05-16T00:50:20.409Z,101313.17
2018-05-16T00:52:49.380Z,101317.81
2018-05-16T00:55:18.793Z,101306.12
2018-05-16T00:57:47.717Z,101306.59
2018-05-16T01:00:16.090Z,101311.13
2018-05-16T01:02:44.454Z,101316.82
2018-05-16T01:05:13.673Z,101322.25
2018-05-16T01:07:42.010Z,101309.98
2018-05-16T01:10:11.228Z,101312.01
2018-05-16T01:12:39.526Z,101308.74
2018-05-16T01:15:08.986Z,101302.86
2018-05-16T01:17:38.071Z,101304.56
2018-05-16T01:20:06.383Z,101302.11
2018-05-16T01:22:34.973Z,101309.74
2018-05-16T01:25:03.688Z,101307.23
2018-05-16T01:27:32.690Z,101298.76
2018-05-16T01:30:01.052Z,101303.45
2018-05-16T01:32:29.830Z,101292.91
2018-05-16T01:34:58.828Z,101295.14
2018-05-16T01:37:28.610Z,101296.36
2018-05-16T01:39:57.900Z,101298.03
2018-05-16T01:42:26.130Z,101295.14
2018-05-16T01:44:55.415Z,101298.48
2018-05-16T01:47:23.710Z,101300.12
2018-05-16T01:49:52.708Z,101293.01
2018-05-16T01:52:21.084Z,101295.09
2018-05-16T01:54:49.968Z,101285.45
2018-05-16T01:57:19.056Z,101283.77
2018-05-16T01:59:47.890Z,101284.98
2018-05-16T02:02:16.324Z,101286.70
2018-05-16T02:04:44.625Z,101291.28
2018-05-16T02:07:12.918Z,101292.56
2018-05-16T02:09:41.901Z,101295.86
2018-05-16T02:12:10.636Z,101302.12
2018-05-16T02:14:39.783Z,101282.86
2018-05-16T02:17:09.176Z,101276.19
2018-05-16T02:19:38.242Z,101281.66
2018-05-16T02:22:07.340Z,101284.30
2018-05-16T02:24:35.642Z,101284.64
2018-05-16T02:27:03.933Z,101278.33
2018-05-16T02:29:33.022Z,101280.55
2018-05-16T02:32:01.324Z,101282.58
2018-05-16T02:34:29.821Z,101283.02
2018-05-16T02:36:58.895Z,101292.27
2018-05-16T02:39:27.191Z,101286.41
2018-05-16T02:41:55.489Z,101289.34
2018-05-16T02:44:24.556Z,101286.84
2018-05-16T02:46:53.706Z,101286.91
2018-05-16T02:49:22.009Z,101276.84
2018-05-16T02:51:50.409Z,101276.82
2018-05-16T02:54:18.948Z,101274.70
2018-05-16T02:56:47.665Z,101275.08
2018-05-16T02:59:16.356Z,101271.33
2018-05-16T03:01:44.943Z,101271.33
2018-05-16T03:04:13.317Z,101268.81
2018-05-16T03:06:41.638Z,101271.34
2018-05-16T03:09:10.737Z,101270.02
2018-05-16T03:11:39.800Z,101263.78
2018-05-16T03:14:08.141Z,101261.68
2018-05-16T03:16:36.630Z,101268.35
2018-05-16T03:19:05.220Z,101269.20
2018-05-16T03:21:35.210Z,101263.30
2018-05-16T03:24:04.274Z,101262.89
2018-05-16T03:26:32.858Z,101269.20
2018-05-16T03:29:01.160Z,101265.41
2018-05-16T03:31:30.303Z,101263.31
2018-05-16T03:33:58.559Z,101266.64
2018-05-16T03:36:26.868Z,101277.15
2018-05-16T03:38:56.443Z,101280.52
2018-05-16T03:41:24.791Z,101283.94
2018-05-16T03:43:54.890Z,101284.39
2018-05-16T03:46:23.875Z,101283.48
2018-05-16T03:48:52.166Z,101270.76
2018-05-16T03:51:21.293Z,101268.28
2018-05-16T03:53:50.998Z,101258.69
2018-05-16T03:56:20.813Z,101249.81
2018-05-16T03:59:07.557Z,101256.17
2018-05-16T04:01:53.579Z,101258.26
2018-05-16T04:04:21.896Z,101259.13
2018-05-16T04:06:50.957Z,101263.75
2018-05-16T04:09:19.334Z,101270.05
2018-05-16T04:11:47.707Z,101270.91
2018-05-16T04:14:16.102Z,101272.17
2018-05-16T04:16:44.418Z,101270.91
2018-05-16T04:19:13.703Z,101274.69
2018-05-16T04:21:43.650Z,101275.07
2018-05-16T04:24:12.698Z,101275.48
2018-05-16T04:26:41.081Z,101276.74
2018-05-16T04:29:09.737Z,101274.25
2018-05-16T04:31:38.135Z,101275.45
2018-05-16T04:34:06.433Z,101276.31
2018-05-16T04:36:34.754Z,101278.44
2018-05-16T04:39:03.152Z,101275.42
2018-05-16T04:41:31.969Z,101277.91
2018-05-16T04:44:01.830Z,101274.12
2018-05-16T04:46:30.906Z,101277.43
2018-05-16T04:48:59.205Z,101280.39
2018-05-16T04:51:28.548Z,101284.07
2018-05-16T04:53:57.661Z,101286.63
2018-05-16T04:56:25.951Z,101283.77
2018-05-16T04:58:55.162Z,101288.71
2018-05-16T05:01:25.157Z,101279.94
2018-05-16T05:03:53.451Z,101284.53
2018-05-16T05:06:23.279Z,101288.34
2018-05-16T05:08:52.547Z,101286.70
2018-05-16T05:11:21.557Z,101289.20
2018-05-16T05:13:50.739Z,101289.66
2018-05-16T05:16:19.059Z,101290.08
2018-05-16T05:18:47.872Z,101289.98
2018-05-16T05:21:16.329Z,101296.66
2018-05-16T05:23:45.482Z,101294.08
2018-05-16T05:26:14.490Z,101298.70
2018-05-16T05:28:43.031Z,101289.37
2018-05-16T05:31:12.016Z,101288.20
2018-05-16T05:33:40.358Z,101294.03
2018-05-16T05:36:09.533Z,101298.61
2018-05-16T05:38:37.868Z,101297.85
2018-05-16T05:41:06.177Z,101295.98
2018-05-16T05:43:34.945Z,101294.23
2018-05-16T05:46:04.054Z,101293.73
2018-05-16T05:48:32.529Z,101292.57
2018-05-16T05:51:02.277Z,101298.00
2018-05-16T05:53:30.570Z,101293.41
2018-05-16T05:55:59.751Z,101293.89
2018-05-16T05:58:28.040Z,101292.12
2018-05-16T06:00:56.786Z,101290.23
2018-05-16T06:03:25.192Z,101289.86
2018-05-16T06:05:54.296Z,101285.94
2018-05-16T06:08:23.567Z,101292.48
2018-05-16T06:10:52.074Z,101287.81
2018-05-16T06:13:20.892Z,101279.72
2018-05-16T06:15:49.983Z,101282.23
2018-05-16T06:18:18.329Z,101276.20
2018-05-16T06:20:46.839Z,101265.64
2018-05-16T06:23:15.960Z,101264.25
2018-05-16T06:25:44.326Z,101261.96
2018-05-16T06:28:14.137Z,101263.56
2018-05-16T06:30:43.092Z,101271.08
2018-05-16T06:33:11.404Z,101269.92
2018-05-16T06:35:40.540Z,101276.23
2018-05-16T06:38:09.069Z,101274.91
2018-05-16T06:40:38.091Z,101272.14
2018-05-16T06:43:07.156Z,101271.94
2018-05-16T06:45:35.580Z,101272.34
2018-05-16T06:48:04.670Z,101276.97
2018-05-16T06:50:33.722Z,101280.15
2018-05-16T06:53:02.070Z,101276.00
2018-05-16T06:55:30.380Z,101277.32
2018-05-16T06:57:59.338Z,101274.68
2018-05-16T07:00:29.095Z,101275.31
2018-05-16T07:02:57.419Z,101273.41
2018-05-16T07:05:26.599Z,101277.52
2018-05-16T07:07:55.393Z,101273.80
2018-05-16T07:10:25.476Z,101276.44
2018-05-16T07:12:53.778Z,101272.24
2018-05-16T07:15:22.070Z,101269.52
2018-05-16T07:17:50.726Z,101264.56
2018-05-16T07:20:19.023Z,101265.98
2018-05-16T07:22:47.353Z,101258.11
2018-05-16T07:25:16.054Z,101262.61
2018-05-16T07:27:44.863Z,101261.11
2018-05-16T07:30:13.892Z,101263.70
2018-05-16T07:32:43.256Z,101256.77
2018-05-16T07:35:13.082Z,101262.27
2018-05-16T07:37:42.139Z,101258.30
2018-05-16T07:40:10.413Z,101259.56
2018-05-16T07:42:38.737Z,101266.67
2018-05-16T07:45:07.311Z,101268.88
2018-05-16T07:47:35.957Z,101265.06
2018-05-16T07:50:04.260Z,101267.59
2018-05-16T07:52:32.661Z,101269.34
2018-05-16T07:55:02.039Z,101265.98
2018-05-16T07:57:30.438Z,101271.18
2018-05-16T07:59:58.722Z,101269.30
2018-05-16T08:02:27.334Z,101273.11
2018-05-16T08:04:56.809Z,101274.36
2018-05-16T08:07:25.921Z,101279.13
2018-05-16T08:09:54.997Z,101270.21
2018-05-16T08:12:23.319Z,101277.94
2018-05-16T08:14:52.744Z,101270.55
2018-05-16T08:17:21.730Z,101267.09
2018-05-16T08:19:50.855Z,101269.06
2018-05-16T08:22:19.416Z,101262.30
2018-05-16T08:24:48.303Z,101263.38
2018-05-16T08:27:16.737Z,101267.41
2018-05-16T08:29:45.554Z,101260.87
2018-05-16T08:32:15.367Z,101267.21
2018-05-16T08:34:45.149Z,101258.45
2018-05-16T08:37:13.451Z,101262.48
2018-05-16T08:39:41.806Z,101258.08
2018-05-16T08:42:10.631Z,101262.33
2018-05-16T08:44:39.700Z,101262.64
2018-05-16T08:47:08.578Z,101261.84
2018-05-16T08:49:37.076Z,101256.52
2018-05-16T08:52:05.382Z,101263.45
2018-05-16T08:54:34.634Z,101264.73
2018-05-16T08:57:04.421Z,101261.95
2018-05-16T08:59:33.432Z,101260.50
2018-05-16T09:02:01.827Z,101264.81
2018-05-16T09:04:30.924Z,101267.54
2018-05-16T09:06:59.817Z,101265.15
2018-05-16T09:09:28.810Z,101263.20
2018-05-16T09:11:57.617Z,101260.22
2018-05-16T09:14:25.953Z,101265.44
2018-05-16T09:16:55.946Z,101253.34
2018-05-16T09:19:25.420Z,101260.97
2018-05-16T09:21:54.101Z,101261.94
2018-05-16T09:24:22.413Z,101260.57
2018-05-16T09:26:50.950Z,101252.45
2018-05-16T09:29:19.388Z,101258.61
2018-05-16T09:31:48.453Z,101246.48
2018-05-16T09:34:18.341Z,101246.34
2018-05-16T09:36:47.385Z,101245.41
2018-05-16T09:39:17.142Z,101241.05
2018-05-16T09:41:45.651Z,101242.77
2018-05-16T09:44:15.002Z,101242.45
2018-05-16T09:46:43.719Z,101243.66
2018-05-16T09:49:12.560Z,101241.09
2018-05-16T09:51:41.710Z,101234.86
2018-05-16T09:54:10.034Z,101234.66
2018-05-16T09:56:39.740Z,101241.45
2018-05-16T09:59:08.937Z,101230.07
2018-05-16T10:01:37.969Z,101230.28
2018-05-16T10:04:06.420Z,101228.70
2018-05-16T10:06:34.786Z,101232.69
2018-05-16T10:09:03.345Z,101227.08
2018-05-16T10:11:31.631Z,101226.75
2018-05-16T10:14:00.174Z,101227.28
2018-05-16T10:16:29.024Z,101215.26
2018-05-16T10:18:57.384Z,101219.07
2018-05-16T10:21:25.961Z,101222.70
2018-05-16T10:23:54.783Z,101226.67
2018-05-16T10:26:24.654Z,101226.33
2018-05-16T10:28:52.963Z,101224.11
2018-05-16T10:31:21.595Z,101223.87
2018-05-16T10:33:49.961Z,101225.15
2018-05-16T10:36:19.045Z,101232.30
2018-05-16T10:38:48.145Z,101231.97
2018-05-16T10:41:17.256Z,101223.39
2018-05-16T10:43:45.515Z,101226.09
2018-05-16T10:46:14.809Z,101228.92
2018-05-16T10:48:43.140Z,101230.27
2018-05-16T10:51:11.434Z,101235.95
2018-05-16T10:53:39.756Z,101230.01
2018-05-16T10:56:09.337Z,101227.19
2018-05-16T10:58:37.621Z,101226.13
2018-05-16T11:01:05.958Z,101220.81
2018-05-16T11:03:34.248Z,101221.37
2018-05-16T11:06:02.545Z,101216.84
2018-05-16T11:08:31.714Z,101223.61
2018-05-16T11:11:00.504Z,101220.78
2018-05-16T11:13:28.801Z,101224.06
2018-05-16T11:15:57.105Z,101223.19
2018-05-16T11:18:25.635Z,101215.17
2018-05-16T11:20:53.949Z,101209.36
2018-05-16T11:23:22.556Z,101219.72
2018-05-16T11:25:51.315Z,101214.41
2018-05-16T11:28:20.474Z,101205.77
2018-05-16T11:30:49.591Z,101199.91
2018-05-16T11:33:17.895Z,101204.74
2018-05-16T11:35:46.245Z,101203.09
2018-05-16T11:38:14.590Z,101215.72
2018-05-16T11:40:43.797Z,101211.64
2018-05-16T11:43:13.422Z,101209.41
2018-05-16T11:45:41.759Z,101214.56
2018-05-16T11:48:11.648Z,101206.52
2018-05-16T11:50:40.054Z,101209.28
2018-05-16T11:53:09.271Z,101197.57
2018-05-16T11:55:38.341Z,101206.87
2018-05-16T11:58:07.377Z,101201.81
2018-05-16T12:00:36.562Z,101202.70
2018-05-16T12:03:05.641Z,101200.95
2018-05-16T12:05:33.943Z,101206.78
2018-05-16T12:08:03.010Z,101203.13
2018-05-16T12:10:31.352Z,101190.88
2018-05-16T12:13:01.694Z,101192.13
2018-05-16T12:15:29.997Z,101195.39
2018-05-16T12:17:59.575Z,101187.13
2018-05-16T12:20:28.104Z,101180.86
2018-05-16T12:22:57.391Z,101180.30
2018-05-16T12:25:26.245Z,101198.75
2018-05-16T12:27:55.174Z,101183.34
2018-05-16T12:30:23.485Z,101168.42
2018-05-16T12:32:52.591Z,101182.94
2018-05-16T12:35:20.887Z,101172.37
2018-05-16T12:37:49.664Z,101172.11
2018-05-16T12:40:18.342Z,101158.75
2018-05-16T12:46:03.518Z,101164.97
2018-05-16T12:48:33.452Z,101166.09
2018-05-16T12:51:02.902Z,101170.95
2018-05-16T12:53:32.101Z,101160.23
2018-05-16T12:56:00.595Z,101165.50
2018-05-16T12:58:29.064Z,101154.57
2018-05-16T13:00:57.362Z,101164.45
2018-05-16T13:03:25.661Z,101168.61
2018-05-16T13:05:54.800Z,101151.19
2018-05-16T13:08:23.114Z,101168.78
2018-05-16T13:10:51.434Z,101170.66
2018-05-16T13:13:21.711Z,101165.62
2018-05-16T13:15:50.245Z,101161.26
2018-05-16T13:18:18.519Z,101163.03
2018-05-16T13:20:47.457Z,101159.97
2018-05-16T13:23:16.378Z,101173.53
2018-05-16T13:25:46.665Z,101164.22
2018-05-16T13:28:14.954Z,101173.94
2018-05-16T13:30:43.269Z,101166.09
2018-05-16T13:33:12.803Z,101165.02
2018-05-16T13:35:41.120Z,101167.60
2018-05-16T13:38:09.702Z,101195.70
2018-05-16T13:40:38.467Z,101178.51
2018-05-16T13:43:06.765Z,101163.50
2018-05-16T13:45:35.256Z,101177.13
2018-05-16T13:48:03.920Z,101176.23
2018-05-16T13:50:32.215Z,101173.70
2018-05-16T13:53:00.524Z,101172.91
2018-05-16T13:55:28.834Z,101185.08
2018-05-16T13:57:57.153Z,101183.08
2018-05-16T14:00:25.471Z,101175.70
2018-05-16T14:02:54.797Z,101184.92
2018-05-16T14:05:23.530Z,101172.22
2018-05-16T14:07:51.861Z,101176.41
2018-05-16T14:10:20.548Z,101178.69
2018-05-16T14:12:48.840Z,101186.00
2018-05-16T14:15:17.698Z,101176.05
2018-05-16T14:17:45.973Z,101180.50
2018-05-16T14:20:15.030Z,101179.48
2018-05-16T14:22:43.332Z,101186.58
2018-05-16T14:25:11.678Z,101193.94
2018-05-16T14:27:40.142Z,101192.97
2018-05-16T14:30:08.786Z,101203.25
2018-05-16T14:32:38.156Z,101204.40
2018-05-16T14:35:06.474Z,101203.11
2018-05-16T14:37:36.589Z,101199.99
2018-05-16T14:40:05.677Z,101187.61
2018-05-16T14:42:34.317Z,101201.70
2018-05-16T14:45:04.139Z,101202.41
2018-05-16T14:47:32.441Z,101188.81
2018-05-16T14:50:00.877Z,101187.22
2018-05-16T14:52:29.770Z,101185.14
2018-05-16T14:54:58.063Z,101174.64
2018-05-16T14:57:26.365Z,101187.91
2018-05-16T14:59:55.554Z,101175.64
2018-05-16T15:02:23.965Z,101171.38
2018-05-16T15:04:52.268Z,101174.67
2018-05-16T15:07:21.429Z,101180.11
2018-05-16T15:09:50.116Z,101176.02
2018-05-16T15:12:19.098Z,101168.97
2018-05-16T15:14:48.610Z,101162.39
2018-05-16T15:17:16.990Z,101163.50
2018-05-16T15:19:45.300Z,101171.03
2018-05-16T15:22:14.502Z,101173.50
2018-05-16T15:24:44.329Z,101156.85
2018-05-16T15:27:13.489Z,101170.46
2018-05-16T15:29:41.730Z,101168.16
2018-05-16T15:32:10.103Z,101171.94
2018-05-16T15:34:39.096Z,101166.34
2018-05-16T15:37:08.091Z,101162.90
2018-05-16T15:39:36.900Z,101163.90
2018-05-16T15:42:05.730Z,101167.89
2018-05-16T15:44:34.834Z,101150.88
2018-05-16T15:47:03.896Z,101151.02
2018-05-16T15:49:32.181Z,101153.52
2018-05-16T15:52:01.566Z,101150.18
2018-05-16T15:54:31.124Z,101141.66
2018-05-16T15:57:01.007Z,101151.19
2018-05-16T15:59:29.861Z,101170.86
2018-05-16T16:01:58.484Z,101158.29
2018-05-16T16:04:27.313Z,101156.98
2018-05-16T16:06:57.263Z,101157.83
2018-05-16T16:09:25.552Z,101155.08
2018-05-16T16:11:53.973Z,101159.54
2018-05-16T16:14:25.157Z,101165.71
2018-05-16T16:16:53.503Z,101164.25
2018-05-16T16:19:23.154Z,101173.01
2018-05-16T16:21:51.445Z,101175.96
2018-05-16T16:24:20.461Z,101177.94
2018-05-16T16:26:48.789Z,101170.69
2018-05-16T16:29:18.151Z,101169.95
2018-05-16T16:31:47.263Z,101167.29
2018-05-16T16:34:16.396Z,101173.00
2018-05-16T16:36:45.541Z,101167.75
2018-05-16T16:39:13.914Z,101165.37
2018-05-16T16:41:42.551Z,101168.57
2018-05-16T16:44:11.690Z,101162.89
2018-05-16T16:46:40.444Z,101171.64
2018-05-16T16:49:08.807Z,101172.89
2018-05-16T16:51:37.934Z,101173.34
2018-05-16T16:54:06.867Z,101172.16
2018-05-16T16:56:35.196Z,101173.81
2018-05-16T16:59:03.500Z,101173.78
2018-05-16T17:01:33.601Z,101169.36
2018-05-16T17:04:01.930Z,101163.89
2018-05-16T17:06:30.276Z,101173.02
2018-05-16T17:08:58.575Z,101172.22
2018-05-16T17:11:26.910Z,101180.81
2018-05-16T17:13:55.929Z,101177.16
2018-05-16T17:16:24.877Z,101180.11
2018-05-16T17:18:54.537Z,101177.78
2018-05-16T17:21:23.366Z,101177.16
2018-05-16T17:23:54.260Z,101183.69
2018-05-16T17:26:23.559Z,101184.03
2018-05-16T17:28:55.816Z,101186.30
2018-05-16T17:31:27.773Z,101187.89
2018-05-16T17:33:56.407Z,101187.05
2018-05-16T17:36:25.555Z,101188.59
2018-05-16T17:38:54.008Z,101187.23
2018-05-16T17:41:23.781Z,101199.44
2018-05-16T17:43:53.878Z,101200.84
2018-05-16T17:46:22.355Z,101192.87
2018-05-16T17:48:51.930Z,101192.77
2018-05-16T17:51:21.911Z,101197.91
2018-05-16T17:53:50.937Z,101202.40
2018-05-16T17:56:19.253Z,101195.42
2018-05-16T17:58:47.746Z,101199.41
2018-05-16T18:01:17.959Z,101200.38
2018-05-16T18:03:46.293Z,101200.05
2018-05-16T18:06:15.492Z,101202.50
2018-05-16T18:08:44.670Z,101202.05
2018-05-16T18:11:13.419Z,101203.47
2018-05-16T18:14:08.795Z,101206.87
2018-05-16T18:19:51.815Z,101209.51
2018-05-16T18:22:20.262Z,101212.16
2018-05-16T18:24:48.803Z,101217.47
2018-05-16T18:27:19.182Z,101218.67
2018-05-16T18:29:47.987Z,101220.14
2018-05-16T18:32:16.382Z,101222.45
2018-05-16T18:34:44.761Z,101229.89
2018-05-16T18:37:13.974Z,101225.51
2018-05-16T18:39:42.538Z,101232.41
2018-05-16T18:42:11.140Z,101232.61
2018-05-16T18:44:39.494Z,101236.47
2018-05-16T18:47:10.259Z,101237.45
2018-05-16T18:49:38.791Z,101233.97
2018-05-16T18:52:07.438Z,101237.55
2018-05-16T18:54:36.521Z,101243.05
2018-05-16T18:57:04.855Z,101241.33
2018-05-16T18:59:34.150Z,101243.37
2018-05-16T19:02:03.133Z,101248.27
2018-05-16T19:04:32.045Z,101259.83
2018-05-16T19:07:01.106Z,101258.53
2018-05-16T19:09:30.339Z,101257.02
2018-05-16T19:11:58.637Z,101260.98
2018-05-16T19:14:27.952Z,101268.26
2018-05-16T19:16:56.366Z,101272.16
2018-05-16T19:19:25.928Z,101276.27
2018-05-16T19:21:55.238Z,101280.86
2018-05-16T19:24:23.865Z,101282.38
2018-05-16T19:26:52.946Z,101288.50
2018-05-16T19:29:21.889Z,101287.80
2018-05-16T19:31:51.855Z,101289.29
2018-05-16T19:34:20.488Z,101294.06
2018-05-16T19:36:49.429Z,101291.45
2018-05-16T19:39:20.038Z,101294.20
2018-05-16T19:41:49.134Z,101301.45
2018-05-16T19:44:17.449Z,101306.16
2018-05-16T19:46:48.337Z,101302.74
2018-05-16T19:49:19.020Z,101306.75
2018-05-16T19:51:47.348Z,101308.84
2018-05-16T19:54:16.288Z,101312.16
2018-05-16T19:56:46.064Z,101314.31
2018-05-16T19:59:15.849Z,101316.74
2018-05-16T20:01:44.132Z,101321.38
2018-05-16T20:04:12.807Z,101318.16
2018-05-16T20:06:41.137Z,101326.52
2018-05-16T20:09:10.532Z,101322.95
2018-05-16T20:11:39.643Z,101318.75
2018-05-16T20:14:07.978Z,101320.47
2018-05-16T20:16:36.761Z,101322.78
2018-05-16T20:19:05.690Z,101327.59
2018-05-16T20:21:35.032Z,101325.37
2018-05-16T20:24:04.134Z,101326.85
2018-05-16T20:26:34.318Z,101328.43
2018-05-16T20:29:04.114Z,101335.58
2018-05-16T20:31:32.515Z,101332.41
2018-05-16T20:34:00.906Z,101331.60
2018-05-16T20:36:30.500Z,101333.98
2018-05-16T20:38:59.760Z,101340.04
2018-05-16T20:41:28.065Z,101338.56
2018-05-16T20:43:57.063Z,101342.48
2018-05-16T20:46:25.521Z,101341.34
2018-05-16T20:48:54.659Z,101344.88
2018-05-16T20:51:23.089Z,101348.44
2018-05-16T20:53:51.482Z,101349.23
2018-05-16T20:56:20.704Z,101351.00
2018-05-16T20:58:49.684Z,101345.80
2018-05-16T21:01:18.442Z,101350.62
2018-05-16T21:03:47.595Z,101358.73
2018-05-16T21:06:16.534Z,101355.66
2018-05-16T21:08:44.864Z,101359.41
2018-05-16T21:11:14.273Z,101364.16
2018-05-16T21:13:43.043Z,101366.30
2018-05-16T21:16:11.667Z,101370.22
2018-05-16T21:18:40.737Z,101375.27
2018-05-16T21:21:09.282Z,101369.86
2018-05-16T21:23:37.675Z,101372.37
2018-05-16T21:26:06.383Z,101375.06
2018-05-16T21:28:34.817Z,101375.40
2018-05-16T21:31:03.862Z,101372.66
2018-05-16T21:33:32.161Z,101371.02
2018-05-16T21:36:00.496Z,101376.48
2018-05-16T21:38:29.321Z,101382.88
2018-05-16T21:40:57.609Z,101377.41
2018-05-16T21:43:26.173Z,101379.59
2018-05-16T21:45:55.281Z,101384.20
2018-05-16T21:48:23.759Z,101390.61
2018-05-16T21:50:52.059Z,101385.63
2018-05-16T21:53:21.110Z,101380.60
2018-05-16T21:55:49.769Z,101391.56
2018-05-16T21:58:18.203Z,101389.10
2018-05-16T22:00:47.134Z,101384.92
2018-05-16T22:03:16.199Z,101388.33
2018-05-16T22:05:44.573Z,101389.57
2018-05-16T22:08:13.670Z,101391.69
2018-05-16T22:10:43.528Z,101390.83
2018-05-16T22:13:11.822Z,101393.80
2018-05-16T22:15:40.138Z,101398.88
2018-05-16T22:18:08.467Z,101404.33
2018-05-16T22:20:37.261Z,101408.09
2018-05-16T22:23:06.368Z,101403.92
2018-05-16T22:25:35.238Z,101401.44
2018-05-16T22:28:04.319Z,101393.91
2018-05-16T22:30:39.421Z,101390.97
2018-05-16T22:33:13.287Z,101394.75
2018-05-16T22:35:47.119Z,101396.41
2018-05-16T22:38:22.594Z,101393.06
2018-05-16T22:40:56.471Z,101389.30
2018-05-16T22:43:24.770Z,101383.85
2018-05-16T22:45:55.240Z,101387.64
2018-05-16T22:48:24.870Z,101390.50
2018-05-16T22:50:53.375Z,101386.71
2018-05-16T22:53:22.329Z,101400.09
2018-05-16T22:55:51.603Z,101393.80
2018-05-16T22:58:20.135Z,101399.23
2018-05-16T23:00:49.863Z,101401.30
2018-05-16T23:03:18.234Z,101407.12
2018-05-16T23:05:46.842Z,101412.11
2018-05-16T23:08:16.929Z,101413.27
2018-05-16T23:10:45.223Z,101411.16
2018-05-16T23:13:13.530Z,101419.05
2018-05-16T23:15:42.154Z,101425.24
2018-05-16T23:18:12.248Z,101428.14
2018-05-16T23:20:40.566Z,101437.66
2018-05-16T23:23:09.410Z,101432.70
2018-05-16T23:25:37.801Z,101432.55
2018-05-16T23:28:06.651Z,101435.83
2018-05-16T23:30:34.975Z,101427.47
2018-05-16T23:33:06.265Z,101427.86
2018-05-16T23:35:35.277Z,101425.63
2018-05-16T23:38:03.608Z,101435.58
2018-05-16T23:40:33.054Z,101422.08
2018-05-16T23:43:01.558Z,101425.86
2018-05-16T23:45:29.855Z,101425.83
2018-05-16T23:47:58.387Z,101424.93
2018-05-16T23:50:26.826Z,101422.80
2018-05-16T23:52:55.128Z,101421.92
2018-05-16T23:55:24.287Z,101415.27
2018-05-16T23:57:52.678Z,101422.20
